Forside
METAR-TAF:

METAR-TAF

Lufthavne :

West Bend Municipal Airport

West Bend, Wisconsin, USA

Breddekreds: 43-25-20N, længdekreds: 088-07-41W, højde: 270 m

Aktuelle vejr

Denne rapport blev lavet for 26 minutter siden, kl. 03:35 UTC
Vind 15 kt fra sydøst med vindstød på up til 22 kt
Temperatur -2°C
Fugtighed 100%
Tryk 1023 hPa
Sigt: 2.4 km
Overskyet i en højde af 900 ft
let sne

METAR: KETB 180335Z AUTO 13015G22KT 1 1/2SM -SN OVC009 M02/M02 A3020 RMK AO2

Tid: 22:01 (04:01 UTC)


TAF: fraværende

Vejrobservationer og prognoser fra mere end 4000 lufthavne (METAR og TAF).

De gule og røde prikker repræsenterer de meteorologiske stationer.

Flyt musen over at se navnet på stationen.

Så klik over at se vejr observationer og prognoser.

At skifte det kort: Klik på de grønne knapper med et sort kors for at zoome ind; på den grønne knap med en bindestreg for at zoome ud; eller på de grønne pile for tilstødende kort.


METAR-TAF: